createdAt,value
2022-11-10T00:00:14.237Z,60.90
2022-11-10T00:03:06.314Z,61.10
2022-11-10T00:05:53.279Z,61.10
2022-11-10T00:08:40.145Z,61.10
2022-11-10T00:11:27.207Z,61.10
2022-11-10T00:14:32.040Z,61.10
2022-11-10T00:17:20.555Z,61.10
2022-11-10T00:20:10.054Z,61.10
2022-11-10T00:22:57.554Z,61.10
2022-11-10T00:25:44.888Z,61.00
2022-11-10T00:28:33.314Z,61.00
2022-11-10T00:31:20.252Z,61.10
2022-11-10T00:34:13.411Z,61.10
2022-11-10T00:37:01.007Z,61.20
2022-11-10T00:39:48.147Z,61.20
2022-11-10T00:42:35.430Z,61.30
2022-11-10T00:45:22.670Z,61.30
2022-11-10T00:48:09.811Z,61.20
2022-11-10T00:50:58.491Z,61.20
2022-11-10T00:53:45.494Z,61.30
2022-11-10T00:56:32.780Z,61.30
2022-11-10T00:59:20.393Z,61.30
2022-11-10T01:02:07.549Z,61.40
2022-11-10T01:04:55.133Z,61.40
2022-11-10T01:07:43.649Z,61.40
2022-11-10T01:10:32.994Z,61.50
2022-11-10T01:13:23.690Z,61.50
2022-11-10T01:16:13.966Z,61.60
2022-11-10T01:19:03.301Z,61.60
2022-11-10T01:21:52.286Z,61.70
2022-11-10T01:24:40.913Z,61.80
2022-11-10T01:27:27.951Z,61.70
2022-11-10T01:30:15.426Z,61.70
2022-11-10T01:33:02.670Z,61.70
2022-11-10T01:35:49.688Z,61.80
2022-11-10T01:38:39.146Z,61.80
2022-11-10T01:41:28.833Z,61.80
2022-11-10T01:44:18.717Z,61.90
2022-11-10T01:47:05.752Z,61.90
2022-11-10T01:49:53.074Z,61.80
2022-11-10T01:52:40.753Z,61.80
2022-11-10T01:55:28.607Z,61.90
2022-11-10T01:58:20.609Z,61.80
2022-11-10T02:01:08.576Z,62.00
2022-11-10T02:04:00.212Z,61.90
2022-11-10T02:06:50.034Z,62.00
2022-11-10T02:09:37.409Z,61.90
2022-11-10T02:12:37.729Z,62.00
2022-11-10T02:15:26.261Z,62.00
2022-11-10T02:18:13.258Z,62.10
2022-11-10T02:21:05.807Z,62.00
2022-11-10T02:23:54.621Z,62.40
2022-11-10T02:26:48.422Z,62.20
2022-11-10T02:29:35.669Z,62.20
2022-11-10T02:32:22.997Z,62.20
2022-11-10T02:35:10.641Z,62.20
2022-11-10T02:37:59.232Z,62.20
2022-11-10T02:40:46.309Z,62.30
2022-11-10T02:43:33.957Z,62.20
2022-11-10T02:46:21.019Z,62.20
2022-11-10T02:49:08.590Z,62.30
2022-11-10T02:51:55.959Z,62.40
2022-11-10T02:54:44.094Z,63.20
2022-11-10T02:57:31.464Z,62.50
2022-11-10T03:00:20.297Z,62.50
2022-11-10T03:03:07.132Z,62.50
2022-11-10T03:05:54.260Z,62.50
2022-11-10T03:08:41.539Z,62.50
2022-11-10T03:11:32.337Z,62.50
2022-11-10T03:14:19.682Z,62.50
2022-11-10T03:17:06.678Z,62.50
2022-11-10T03:19:53.990Z,62.50
2022-11-10T03:22:41.118Z,62.40
2022-11-10T03:25:28.252Z,62.60
2022-11-10T03:28:16.563Z,62.50
2022-11-10T03:31:04.314Z,62.50
2022-11-10T03:33:51.288Z,62.50
2022-11-10T03:36:38.525Z,62.50
2022-11-10T03:39:25.744Z,62.60
2022-11-10T03:42:12.912Z,62.60
2022-11-10T03:45:01.442Z,62.60
2022-11-10T03:47:49.953Z,62.70
2022-11-10T03:50:37.921Z,62.70
2022-11-10T03:53:25.145Z,62.70
2022-11-10T03:56:13.468Z,62.70
2022-11-10T03:59:00.665Z,62.80
2022-11-10T04:01:50.221Z,62.80
2022-11-10T04:04:54.738Z,62.90
2022-11-10T04:07:59.759Z,62.90
2022-11-10T04:10:47.728Z,62.90
2022-11-10T04:13:52.531Z,62.90
2022-11-10T04:16:39.989Z,62.90
2022-11-10T04:19:29.153Z,62.90
2022-11-10T04:22:36.341Z,63.00
2022-11-10T04:25:23.514Z,63.00
2022-11-10T04:28:10.675Z,63.00
2022-11-10T04:30:57.829Z,63.10
2022-11-10T04:33:45.654Z,62.90
2022-11-10T04:36:36.249Z,62.90
2022-11-10T04:39:23.086Z,63.00
2022-11-10T04:42:10.043Z,63.00
2022-11-10T04:44:57.575Z,62.90
2022-11-10T04:47:44.630Z,63.00
2022-11-10T04:50:31.996Z,63.00
2022-11-10T04:53:22.084Z,63.10
2022-11-10T04:56:13.863Z,63.20
2022-11-10T04:59:01.058Z,63.20
2022-11-10T05:01:47.988Z,63.20
2022-11-10T05:04:35.144Z,63.10
2022-11-10T05:07:22.438Z,63.10
2022-11-10T05:10:11.385Z,63.20
2022-11-10T05:13:00.029Z,63.30
2022-11-10T05:15:47.480Z,63.30
2022-11-10T05:18:34.901Z,63.40
2022-11-10T05:21:21.750Z,63.30
2022-11-10T05:24:09.152Z,63.30
2022-11-10T05:26:57.730Z,63.40
2022-11-10T05:29:44.645Z,63.40
2022-11-10T05:32:31.372Z,63.40
2022-11-10T05:35:18.603Z,63.40
2022-11-10T05:38:06.424Z,63.40
2022-11-10T05:40:53.908Z,63.40
2022-11-10T05:43:42.782Z,63.50
2022-11-10T05:46:31.488Z,63.50
2022-11-10T05:49:18.849Z,63.50
2022-11-10T05:52:05.885Z,63.40
2022-11-10T05:54:52.708Z,63.50
2022-11-10T05:57:40.003Z,63.60
2022-11-10T06:00:30.989Z,63.70
2022-11-10T06:03:20.854Z,63.80
2022-11-10T06:06:08.634Z,63.80
2022-11-10T06:08:56.498Z,63.80
2022-11-10T06:11:43.342Z,63.80
2022-11-10T06:14:30.117Z,63.80
2022-11-10T06:17:18.471Z,63.90
2022-11-10T06:20:07.076Z,63.90
2022-11-10T06:23:03.142Z,64.00
2022-11-10T06:25:50.179Z,64.00
2022-11-10T06:28:37.693Z,63.90
2022-11-10T06:31:24.690Z,64.00
2022-11-10T06:34:13.390Z,64.00
2022-11-10T06:37:00.584Z,64.10
2022-11-10T06:39:47.677Z,64.00
2022-11-10T06:42:35.916Z,64.00
2022-11-10T06:45:23.520Z,64.10
2022-11-10T06:48:14.291Z,64.10
2022-11-10T06:51:03.733Z,64.10
2022-11-10T06:53:50.913Z,64.10
2022-11-10T06:56:38.141Z,64.10
2022-11-10T06:59:24.913Z,64.10
2022-11-10T07:02:16.419Z,64.20
2022-11-10T07:05:03.650Z,64.30
2022-11-10T07:07:52.710Z,64.30
2022-11-10T07:10:40.052Z,64.40
2022-11-10T07:13:27.502Z,64.40
2022-11-10T07:16:14.770Z,64.40
2022-11-10T07:19:01.839Z,64.40
2022-11-10T07:21:49.398Z,64.50
2022-11-10T07:24:38.558Z,64.40
2022-11-10T07:27:25.443Z,64.50
2022-11-10T07:30:14.472Z,64.50
2022-11-10T07:33:03.098Z,64.50
2022-11-10T07:35:57.382Z,64.50
2022-11-10T07:38:44.741Z,64.70
2022-11-10T07:41:33.509Z,64.60
2022-11-10T07:44:20.984Z,64.70
2022-11-10T07:47:08.061Z,64.70
2022-11-10T07:49:55.718Z,64.70
2022-11-10T07:52:42.758Z,64.70
2022-11-10T07:55:29.888Z,64.70
2022-11-10T07:58:19.421Z,64.80
2022-11-10T08:01:07.568Z,64.90
2022-11-10T08:03:54.720Z,64.90
2022-11-10T08:06:41.969Z,64.90
2022-11-10T08:09:29.043Z,64.90
2022-11-10T08:12:15.832Z,65.00
2022-11-10T08:15:04.619Z,65.00
2022-11-10T08:17:51.845Z,65.10
2022-11-10T08:20:39.221Z,65.10
2022-11-10T08:23:26.166Z,65.10
2022-11-10T08:26:13.122Z,65.10
2022-11-10T08:29:00.195Z,65.20
2022-11-10T08:31:48.870Z,65.40
2022-11-10T08:34:36.082Z,65.40
2022-11-10T08:37:23.002Z,65.40
2022-11-10T08:40:11.729Z,66.20
2022-11-10T08:43:02.902Z,65.50
2022-11-10T08:45:49.954Z,65.60
2022-11-10T08:48:38.496Z,65.60
2022-11-10T08:51:25.670Z,65.50
2022-11-10T08:54:12.936Z,65.50
2022-11-10T08:56:59.836Z,65.50
2022-11-10T08:59:47.419Z,65.50
2022-11-10T09:02:34.668Z,65.50
2022-11-10T09:05:23.622Z,65.50
2022-11-10T09:08:11.046Z,65.60
2022-11-10T09:10:58.138Z,65.50
2022-11-10T09:13:45.039Z,65.50
2022-11-10T09:16:31.991Z,65.50
2022-11-10T09:19:20.198Z,65.50
2022-11-10T09:22:09.674Z,65.60
2022-11-10T09:24:56.725Z,65.60
2022-11-10T09:27:43.848Z,65.60
2022-11-10T09:30:30.975Z,65.60
2022-11-10T09:33:19.066Z,65.60
2022-11-10T09:36:07.033Z,65.60
2022-11-10T09:38:55.581Z,65.70
2022-11-10T09:41:45.127Z,65.70
2022-11-10T09:44:36.950Z,65.70
2022-11-10T09:47:55.457Z,65.70
2022-11-10T09:50:43.304Z,65.80
2022-11-10T09:53:38.751Z,65.80
2022-11-10T09:56:34.135Z,65.80
2022-11-10T09:59:27.615Z,65.90
2022-11-10T10:02:29.705Z,65.80
2022-11-10T10:05:48.778Z,65.70
2022-11-10T10:08:50.396Z,65.70
2022-11-10T10:11:52.379Z,65.80
2022-11-10T10:15:09.768Z,65.70
2022-11-10T10:18:20.557Z,65.60
2022-11-10T10:21:26.398Z,65.60
2022-11-10T10:24:21.837Z,65.60
2022-11-10T10:27:20.546Z,65.50
2022-11-10T10:30:15.262Z,65.40
2022-11-10T10:33:15.323Z,65.40
2022-11-10T10:36:14.757Z,65.40
2022-11-10T10:39:06.603Z,65.40
2022-11-10T10:41:53.754Z,65.40
2022-11-10T10:44:42.877Z,65.40
2022-11-10T10:47:41.086Z,65.50
2022-11-10T10:50:34.362Z,65.40
2022-11-10T10:53:23.632Z,65.40
2022-11-10T10:56:20.241Z,65.40
2022-11-10T10:59:19.752Z,65.60
2022-11-10T11:02:27.523Z,65.50
2022-11-10T11:05:17.798Z,65.50
2022-11-10T11:08:06.166Z,65.40
2022-11-10T11:10:53.326Z,65.30
2022-11-10T11:13:40.273Z,65.40
2022-11-10T11:16:27.361Z,65.30
2022-11-10T11:19:17.723Z,65.30
2022-11-10T11:22:44.024Z,65.30
2022-11-10T11:25:35.030Z,65.00
2022-11-10T11:28:32.258Z,65.10
2022-11-10T11:31:28.726Z,65.10
2022-11-10T11:34:26.080Z,65.90
2022-11-10T11:37:23.092Z,64.90
2022-11-10T11:40:26.092Z,65.00
2022-11-10T11:43:32.831Z,65.00
2022-11-10T11:46:30.076Z,64.90
2022-11-10T11:49:41.352Z,64.90
2022-11-10T11:52:37.897Z,64.80
2022-11-10T11:55:36.809Z,64.70
2022-11-10T11:58:37.598Z,64.50
2022-11-10T12:01:41.168Z,64.50
2022-11-10T12:04:46.855Z,64.40
2022-11-10T12:07:47.296Z,64.50
2022-11-10T12:10:50.582Z,64.40
2022-11-10T12:13:53.278Z,64.20
2022-11-10T12:16:43.812Z,64.20
2022-11-10T12:19:40.206Z,64.10
2022-11-10T12:22:39.855Z,64.00
2022-11-10T12:25:32.795Z,64.00
2022-11-10T12:28:26.517Z,64.00
2022-11-10T12:31:20.257Z,64.10
2022-11-10T12:34:17.071Z,64.20
2022-11-10T12:37:09.157Z,64.20
2022-11-10T12:40:03.959Z,64.00
2022-11-10T12:42:58.369Z,64.10
2022-11-10T12:45:52.861Z,63.90
2022-11-10T12:48:56.794Z,63.90
2022-11-10T12:51:54.305Z,63.80
2022-11-10T12:54:46.217Z,63.80
2022-11-10T12:57:34.228Z,63.40
2022-11-10T13:00:28.861Z,63.30
2022-11-10T13:03:26.964Z,63.10
2022-11-10T13:06:27.559Z,63.00
2022-11-10T13:09:25.901Z,62.80
2022-11-10T13:12:20.855Z,62.70
2022-11-10T13:15:48.538Z,62.70
2022-11-10T13:19:01.547Z,62.20
2022-11-10T13:22:11.180Z,62.30
2022-11-10T13:26:05.713Z,62.50
2022-11-10T13:29:04.881Z,62.00
2022-11-10T13:31:58.239Z,62.00
2022-11-10T13:34:46.249Z,61.90
2022-11-10T13:37:50.479Z,61.90
2022-11-10T13:40:44.342Z,61.40
2022-11-10T13:43:31.637Z,61.60
2022-11-10T13:46:21.314Z,61.40
2022-11-10T13:49:38.852Z,61.00
2022-11-10T13:52:42.652Z,60.40
2022-11-10T13:55:52.722Z,60.40
2022-11-10T13:58:44.876Z,60.30
2022-11-10T14:01:33.837Z,60.20
2022-11-10T14:04:43.892Z,60.30
2022-11-10T14:07:36.252Z,59.90
2022-11-10T14:10:36.602Z,60.10
2022-11-10T14:13:32.302Z,59.80
2022-11-10T14:16:23.223Z,59.90
2022-11-10T14:19:27.867Z,60.00
2022-11-10T14:22:26.274Z,59.70
2022-11-10T14:25:23.902Z,59.70
2022-11-10T14:28:28.884Z,59.80
2022-11-10T14:31:21.409Z,59.70
2022-11-10T14:34:16.887Z,59.80
2022-11-10T14:37:05.933Z,59.80
2022-11-10T14:39:56.558Z,59.80
2022-11-10T14:42:46.167Z,59.80
2022-11-10T14:45:33.170Z,59.70
2022-11-10T14:48:25.055Z,59.70
2022-11-10T14:51:17.105Z,59.60
2022-11-10T14:54:07.158Z,59.50
2022-11-10T14:56:55.395Z,59.40
2022-11-10T14:59:42.618Z,59.40
2022-11-10T15:02:30.004Z,59.40
2022-11-10T15:05:17.640Z,59.40
2022-11-10T15:08:06.645Z,59.30
2022-11-10T15:10:56.310Z,59.30
2022-11-10T15:13:43.491Z,59.90
2022-11-10T15:16:32.473Z,59.30
2022-11-10T15:19:28.386Z,59.30
2022-11-10T15:22:20.465Z,59.20
2022-11-10T15:25:17.093Z,59.20
2022-11-10T15:28:17.588Z,59.10
2022-11-10T15:31:08.089Z,59.20
2022-11-10T15:33:57.632Z,59.10
2022-11-10T15:36:44.639Z,59.20
2022-11-10T15:39:31.904Z,59.20
2022-11-10T15:42:22.403Z,59.10
2022-11-10T15:45:12.974Z,59.10
2022-11-10T15:48:00.211Z,59.20
2022-11-10T15:50:50.480Z,59.10
2022-11-10T15:53:41.242Z,59.10
2022-11-10T15:56:28.729Z,59.10
2022-11-10T15:59:16.017Z,59.00
2022-11-10T16:02:12.474Z,59.10
2022-11-10T16:05:00.165Z,59.10
2022-11-10T16:07:47.485Z,59.20
2022-11-10T16:10:34.535Z,59.20
2022-11-10T16:13:28.692Z,59.20
2022-11-10T16:16:19.171Z,59.10
2022-11-10T16:19:07.502Z,59.10
2022-11-10T16:21:54.508Z,59.10
2022-11-10T16:24:42.564Z,59.10
2022-11-10T16:27:29.678Z,59.60
2022-11-10T16:30:17.726Z,59.10
2022-11-10T16:33:05.034Z,59.10
2022-11-10T16:35:55.239Z,59.10
2022-11-10T16:38:42.298Z,59.10
2022-11-10T16:41:29.431Z,59.10
2022-11-10T16:44:24.822Z,59.20
2022-11-10T16:47:19.056Z,59.20
2022-11-10T16:50:20.487Z,59.10
2022-11-10T16:53:17.204Z,59.20
2022-11-10T16:56:04.300Z,59.20
2022-11-10T16:58:51.616Z,59.30
2022-11-10T17:01:41.483Z,59.20
2022-11-10T17:04:28.349Z,59.30
2022-11-10T17:07:15.954Z,59.30
2022-11-10T17:10:05.136Z,59.30
2022-11-10T17:12:52.075Z,59.30
2022-11-10T17:15:39.426Z,59.30
2022-11-10T17:18:27.326Z,59.30
2022-11-10T17:21:15.151Z,59.30
2022-11-10T17:24:03.296Z,59.30
2022-11-10T17:26:51.647Z,59.30
2022-11-10T17:29:38.531Z,59.30
2022-11-10T17:32:49.974Z,59.30
2022-11-10T17:35:36.341Z,59.30
2022-11-10T17:38:29.995Z,59.30
2022-11-10T17:41:19.711Z,59.30
2022-11-10T17:44:14.209Z,59.40
2022-11-10T17:47:01.576Z,59.40
2022-11-10T17:49:48.778Z,59.50
2022-11-10T17:52:36.386Z,59.60
2022-11-10T17:55:28.488Z,59.60
2022-11-10T17:58:19.280Z,59.70
2022-11-10T18:01:15.815Z,59.80
2022-11-10T18:04:02.866Z,59.90
2022-11-10T18:06:50.111Z,59.90
2022-11-10T18:09:37.017Z,59.90
2022-11-10T18:12:27.811Z,60.00
2022-11-10T18:15:17.607Z,60.10
2022-11-10T18:18:06.630Z,60.10
2022-11-10T18:20:54.427Z,60.20
2022-11-10T18:23:44.859Z,60.20
2022-11-10T18:26:32.022Z,60.20
2022-11-10T18:29:19.114Z,61.20
2022-11-10T18:32:06.775Z,60.40
2022-11-10T18:34:55.439Z,60.40
2022-11-10T18:37:42.221Z,60.50
2022-11-10T18:40:29.435Z,60.60
2022-11-10T18:43:17.230Z,60.60
2022-11-10T18:46:04.416Z,60.70
2022-11-10T18:48:51.353Z,60.50
2022-11-10T18:51:39.905Z,60.50
2022-11-10T18:54:27.590Z,60.50
2022-11-10T18:57:16.645Z,60.50
2022-11-10T19:00:06.983Z,60.50
2022-11-10T19:02:55.311Z,60.60
2022-11-10T19:05:42.810Z,60.60
2022-11-10T19:08:31.677Z,60.70
2022-11-10T19:11:20.118Z,60.60
2022-11-10T19:14:07.226Z,60.60
2022-11-10T19:16:54.757Z,60.70
2022-11-10T19:19:41.828Z,60.80
2022-11-10T19:22:29.367Z,60.90
2022-11-10T19:25:17.951Z,60.90
2022-11-10T19:28:05.883Z,60.90
2022-11-10T19:30:52.879Z,60.80
2022-11-10T19:33:42.596Z,60.90
2022-11-10T19:36:29.947Z,60.90
2022-11-10T19:39:17.209Z,60.90
2022-11-10T19:42:06.014Z,60.70
2022-11-10T19:44:53.082Z,60.80
2022-11-10T19:47:40.172Z,60.80
2022-11-10T19:50:30.601Z,60.80
2022-11-10T19:53:17.999Z,60.80
2022-11-10T19:56:07.762Z,60.80
2022-11-10T19:58:56.337Z,60.80
2022-11-10T20:01:43.935Z,60.80
2022-11-10T20:04:30.839Z,60.70
2022-11-10T20:07:36.045Z,60.60
2022-11-10T20:10:23.744Z,60.60
2022-11-10T20:13:12.549Z,60.60
2022-11-10T20:16:04.873Z,60.60
2022-11-10T20:18:52.333Z,60.60
2022-11-10T20:21:39.572Z,60.60
2022-11-10T20:24:29.045Z,60.60
2022-11-10T20:27:16.345Z,60.50
2022-11-10T20:30:03.458Z,60.40
2022-11-10T20:32:52.140Z,60.40
2022-11-10T20:35:41.783Z,60.40
2022-11-10T20:38:31.943Z,60.40
2022-11-10T20:41:23.077Z,60.40
2022-11-10T20:44:10.063Z,60.40
2022-11-10T20:46:57.321Z,60.20
2022-11-10T20:49:45.865Z,60.30
2022-11-10T20:52:34.579Z,60.30
2022-11-10T20:55:36.971Z,60.30
2022-11-10T20:58:28.938Z,60.30
2022-11-10T21:01:17.008Z,60.30
2022-11-10T21:04:06.095Z,60.30
2022-11-10T21:06:54.330Z,60.40
2022-11-10T21:09:41.652Z,60.30
2022-11-10T21:12:46.160Z,60.30
2022-11-10T21:15:33.126Z,60.30
2022-11-10T21:18:21.178Z,60.30
2022-11-10T21:21:22.613Z,60.30
2022-11-10T21:24:11.904Z,60.30
2022-11-10T21:26:59.507Z,60.30
2022-11-10T21:29:46.520Z,60.40
2022-11-10T21:32:34.186Z,60.30
2022-11-10T21:35:22.016Z,60.40
2022-11-10T21:38:13.556Z,60.30
2022-11-10T21:41:01.944Z,60.30
2022-11-10T21:43:49.518Z,60.30
2022-11-10T21:46:36.822Z,60.30
2022-11-10T21:49:23.859Z,60.20
2022-11-10T21:52:11.276Z,60.30
2022-11-10T21:54:58.548Z,60.30
2022-11-10T21:57:47.750Z,60.20
2022-11-10T22:00:34.839Z,60.30
2022-11-10T22:03:22.557Z,60.30
2022-11-10T22:06:13.434Z,60.30
2022-11-10T22:09:01.166Z,60.30
2022-11-10T22:12:05.660Z,60.20
2022-11-10T22:15:11.250Z,60.30
2022-11-10T22:18:18.064Z,60.30
2022-11-10T22:21:06.414Z,60.30
2022-11-10T22:24:10.694Z,60.20
2022-11-10T22:27:00.261Z,60.20
2022-11-10T22:29:47.362Z,60.20
2022-11-10T22:32:36.235Z,60.20
2022-11-10T22:35:52.893Z,60.30
2022-11-10T22:38:42.314Z,60.30
2022-11-10T22:41:46.767Z,60.30
2022-11-10T22:44:34.073Z,60.30
2022-11-10T22:47:21.350Z,60.20
2022-11-10T22:50:10.338Z,60.20
2022-11-10T22:52:58.655Z,60.30
2022-11-10T22:55:45.557Z,60.20
2022-11-10T22:58:33.214Z,60.20
2022-11-10T23:01:20.693Z,60.30
2022-11-10T23:04:07.674Z,60.30
2022-11-10T23:06:56.284Z,60.30
2022-11-10T23:09:43.154Z,60.30
2022-11-10T23:12:30.566Z,60.30
2022-11-10T23:15:17.939Z,60.30
2022-11-10T23:18:06.953Z,61.20
2022-11-10T23:20:59.488Z,60.40
2022-11-10T23:23:49.768Z,60.40
2022-11-10T23:26:36.686Z,60.40
2022-11-10T23:29:24.143Z,61.20
2022-11-10T23:32:11.250Z,60.40
2022-11-10T23:34:58.680Z,60.40
2022-11-10T23:37:46.119Z,60.40
2022-11-10T23:40:34.571Z,60.50
2022-11-10T23:43:21.720Z,60.50
2022-11-10T23:46:08.911Z,60.50
2022-11-10T23:48:55.796Z,60.40
2022-11-10T23:51:42.850Z,60.40
2022-11-10T23:54:30.070Z,60.40
2022-11-10T23:57:18.653Z,60.40
